createdAt,value
2022-10-19T00:00:47.997Z,94241.50
2022-10-19T00:03:18.265Z,94239.75
2022-10-19T00:05:47.583Z,94232.88
2022-10-19T00:08:14.363Z,94227.81
2022-10-19T00:10:42.010Z,94237.06
2022-10-19T00:13:08.791Z,94227.69
2022-10-19T00:15:40.178Z,94226.56
2022-10-19T00:18:08.055Z,94218.09
2022-10-19T00:20:36.187Z,94223.03
2022-10-19T00:23:03.014Z,94217.31
2022-10-19T00:25:29.854Z,94212.09
2022-10-19T00:27:56.547Z,94209.22
2022-10-19T00:30:23.381Z,94207.56
2022-10-19T00:32:50.138Z,94199.22
2022-10-19T00:35:16.922Z,94199.56
2022-10-19T00:37:43.639Z,94187.28
2022-10-19T00:40:10.827Z,94189.47
2022-10-19T00:42:37.619Z,94183.66
2022-10-19T00:45:14.456Z,94182.16
2022-10-19T00:47:42.663Z,94180.22
2022-10-19T00:50:10.572Z,94173.97
2022-10-19T00:52:37.476Z,94168.97
2022-10-19T00:55:04.856Z,94162.28
2022-10-19T00:57:32.105Z,94166.78
2022-10-19T00:59:59.815Z,94164.94
2022-10-19T01:02:26.892Z,94164.38
2022-10-19T01:04:54.013Z,94158.59
2022-10-19T01:07:21.376Z,94157.06
2022-10-19T01:09:48.391Z,94159.03
2022-10-19T01:12:21.144Z,94147.56
2022-10-19T01:15:20.170Z,94149.88
2022-10-19T01:18:13.090Z,94143.25
2022-10-19T01:21:21.719Z,94139.75
2022-10-19T01:24:07.023Z,94136.72
2022-10-19T01:26:56.716Z,94136.13
2022-10-19T01:30:01.206Z,94142.03
2022-10-19T01:32:41.675Z,94124.66
2022-10-19T01:35:22.807Z,94133.22
2022-10-19T01:38:01.803Z,94130.41
2022-10-19T01:40:34.409Z,94120.53
2022-10-19T01:43:02.645Z,94122.59
2022-10-19T01:45:37.235Z,94122.00
2022-10-19T01:48:10.560Z,94120.63
2022-10-19T01:50:51.127Z,94112.56
2022-10-19T01:53:19.181Z,94117.66
2022-10-19T01:55:49.230Z,94112.66
2022-10-19T01:58:18.309Z,94109.06
2022-10-19T02:00:45.556Z,94109.88
2022-10-19T02:03:13.145Z,94107.47
2022-10-19T02:05:41.137Z,94117.84
2022-10-19T02:08:17.712Z,94113.69
2022-10-19T02:10:45.297Z,94105.38
2022-10-19T02:13:14.246Z,94109.06
2022-10-19T02:15:44.168Z,94110.16
2022-10-19T02:18:13.061Z,94107.63
2022-10-19T02:20:39.904Z,94106.72
2022-10-19T02:23:07.233Z,94101.94
2022-10-19T02:25:34.255Z,94109.91
2022-10-19T02:28:02.204Z,94107.38
2022-10-19T02:30:29.079Z,94102.59
2022-10-19T02:32:55.924Z,94102.78
2022-10-19T02:35:23.057Z,94103.25
2022-10-19T02:37:49.994Z,94101.13
2022-10-19T02:40:16.963Z,94101.53
2022-10-19T02:42:54.471Z,94103.34
2022-10-19T02:45:31.256Z,94102.66
2022-10-19T02:48:07.409Z,94105.47
2022-10-19T02:50:34.423Z,94105.03
2022-10-19T02:53:01.571Z,94101.47
2022-10-19T02:55:29.995Z,94098.00
2022-10-19T02:57:57.491Z,94096.06
2022-10-19T03:00:24.316Z,94092.94
2022-10-19T03:02:51.404Z,94084.50
2022-10-19T03:05:18.094Z,94084.50
2022-10-19T03:07:44.820Z,94081.38
2022-10-19T03:10:11.662Z,94093.25
2022-10-19T03:12:38.390Z,94084.41
2022-10-19T03:15:05.523Z,94092.59
2022-10-19T03:17:32.490Z,94085.78
2022-10-19T03:19:59.478Z,94097.25
2022-10-19T03:22:26.203Z,94099.00
2022-10-19T03:24:52.958Z,94094.72
2022-10-19T03:27:19.840Z,94095.41
2022-10-19T03:29:46.711Z,94097.03
2022-10-19T03:32:13.487Z,94103.25
2022-10-19T03:34:40.244Z,94095.53
2022-10-19T03:37:08.616Z,94092.66
2022-10-19T03:39:35.530Z,94087.38
2022-10-19T03:42:02.285Z,94083.19
2022-10-19T03:44:29.198Z,94082.38
2022-10-19T03:46:56.010Z,94083.41
2022-10-19T03:49:22.713Z,94071.84
2022-10-19T03:51:49.532Z,94077.84
2022-10-19T03:54:16.815Z,94073.75
2022-10-19T03:56:44.010Z,94076.59
2022-10-19T03:59:13.210Z,94077.44
2022-10-19T04:01:43.451Z,94075.78
2022-10-19T04:04:16.467Z,94076.59
2022-10-19T04:06:45.229Z,94080.47
2022-10-19T04:09:15.372Z,94081.78
2022-10-19T04:11:42.648Z,94083.75
2022-10-19T04:14:15.937Z,94086.88
2022-10-19T04:16:49.763Z,94072.97
2022-10-19T04:19:17.354Z,94072.97
2022-10-19T04:21:44.832Z,94061.19
2022-10-19T04:24:16.678Z,94062.13
2022-10-19T04:26:46.237Z,94054.50
2022-10-19T04:29:13.925Z,94058.75
2022-10-19T04:31:41.189Z,94061.19
2022-10-19T04:34:08.681Z,94055.91
2022-10-19T04:36:36.225Z,94054.41
2022-10-19T04:39:04.441Z,94045.63
2022-10-19T04:41:31.735Z,94051.97
2022-10-19T04:44:00.001Z,94045.84
2022-10-19T04:46:27.579Z,94049.19
2022-10-19T04:48:54.907Z,94050.00
2022-10-19T04:51:22.131Z,94048.88
2022-10-19T04:53:49.097Z,94062.06
2022-10-19T04:56:19.751Z,94060.16
2022-10-19T04:58:47.101Z,94059.16
2022-10-19T05:01:14.960Z,94058.44
2022-10-19T05:03:41.766Z,94055.06
2022-10-19T05:06:09.456Z,94052.97
2022-10-19T05:08:36.978Z,94055.81
2022-10-19T05:11:06.579Z,94060.56
2022-10-19T05:13:33.770Z,94055.47
2022-10-19T05:16:02.400Z,94059.97
2022-10-19T05:18:29.452Z,94061.72
2022-10-19T05:21:06.726Z,94059.25
2022-10-19T05:23:34.219Z,94053.16
2022-10-19T05:26:06.409Z,94045.31
2022-10-19T05:28:33.885Z,94040.81
2022-10-19T05:31:10.815Z,94046.19
2022-10-19T05:33:38.350Z,94040.53
2022-10-19T05:36:14.160Z,94044.56
2022-10-19T05:38:41.485Z,94052.47
2022-10-19T05:41:08.223Z,94057.66
2022-10-19T05:43:35.044Z,94060.00
2022-10-19T05:46:07.521Z,94052.41
2022-10-19T05:48:35.088Z,94057.06
2022-10-19T05:51:03.132Z,94048.53
2022-10-19T05:53:29.975Z,94050.03
2022-10-19T05:55:56.809Z,94051.34
2022-10-19T05:58:23.845Z,94058.38
2022-10-19T06:00:58.644Z,94056.84
2022-10-19T06:03:27.227Z,94054.75
2022-10-19T06:05:54.351Z,94053.66
2022-10-19T06:08:22.659Z,94057.44
2022-10-19T06:10:49.951Z,94057.84
2022-10-19T06:13:17.740Z,94051.41
2022-10-19T06:15:44.588Z,94057.47
2022-10-19T06:18:12.558Z,94066.09
2022-10-19T06:20:42.087Z,94074.81
2022-10-19T06:23:09.357Z,94077.84
2022-10-19T06:25:37.634Z,94084.78
2022-10-19T06:28:04.489Z,94086.59
2022-10-19T06:30:31.291Z,94086.44
2022-10-19T06:32:59.042Z,94084.06
2022-10-19T06:35:25.998Z,94086.25
2022-10-19T06:37:52.705Z,94088.94
2022-10-19T06:40:19.513Z,94080.50
2022-10-19T06:42:46.326Z,94074.31
2022-10-19T06:45:13.074Z,94076.19
2022-10-19T06:47:39.957Z,94073.59
2022-10-19T06:50:07.388Z,94072.50
2022-10-19T06:52:35.502Z,94072.53
2022-10-19T06:55:02.624Z,94062.56
2022-10-19T06:57:29.535Z,94068.47
2022-10-19T06:59:56.365Z,94062.19
2022-10-19T07:02:23.140Z,94056.84
2022-10-19T07:04:50.235Z,94056.88
2022-10-19T07:07:16.984Z,94049.38
2022-10-19T07:09:43.793Z,94055.16
2022-10-19T07:12:10.975Z,94048.81
2022-10-19T07:14:39.743Z,94042.81
2022-10-19T07:17:07.493Z,94049.47
2022-10-19T07:19:34.975Z,94053.53
2022-10-19T07:22:01.781Z,94055.06
2022-10-19T07:24:28.448Z,94054.25
2022-10-19T07:26:55.568Z,94046.50
2022-10-19T07:29:22.486Z,94046.91
2022-10-19T07:31:49.351Z,94043.94
2022-10-19T07:34:16.643Z,94041.28
2022-10-19T07:36:48.189Z,94040.44
2022-10-19T07:39:17.223Z,94038.00
2022-10-19T07:41:44.371Z,94038.16
2022-10-19T07:44:14.803Z,94037.84
2022-10-19T07:46:42.710Z,94031.88
2022-10-19T07:49:13.205Z,94025.00
2022-10-19T07:51:40.659Z,94026.00
2022-10-19T07:54:07.581Z,94018.75
2022-10-19T07:56:35.141Z,94012.84
2022-10-19T07:59:02.852Z,94006.75
2022-10-19T08:01:32.167Z,94002.41
2022-10-19T08:06:46.739Z,94001.72
2022-10-19T08:09:33.338Z,94000.53
2022-10-19T08:12:00.352Z,94005.03
2022-10-19T08:14:27.123Z,94008.34
2022-10-19T08:16:53.851Z,94000.97
2022-10-19T08:19:22.608Z,94004.88
2022-10-19T08:21:49.411Z,94002.44
2022-10-19T08:24:17.934Z,93992.38
2022-10-19T08:26:44.816Z,93997.66
2022-10-19T08:29:31.511Z,93998.47
2022-10-19T08:32:19.229Z,93986.88
2022-10-19T08:35:10.707Z,93994.44
2022-10-19T08:37:58.880Z,93995.59
2022-10-19T08:40:31.196Z,93986.78
2022-10-19T08:43:03.937Z,93979.16
2022-10-19T08:45:33.625Z,93980.53
2022-10-19T08:48:11.159Z,93979.84
2022-10-19T08:50:43.298Z,93980.63
2022-10-19T08:53:16.968Z,93975.03
2022-10-19T08:56:06.602Z,93975.63
2022-10-19T08:58:33.379Z,93974.31
2022-10-19T09:01:07.962Z,93972.16
2022-10-19T09:03:55.306Z,93970.50
2022-10-19T09:06:37.711Z,93970.53
2022-10-19T09:09:05.234Z,93970.53
2022-10-19T09:11:37.654Z,93964.13
2022-10-19T09:14:56.947Z,93967.81
2022-10-19T09:17:25.347Z,93957.78
2022-10-19T09:19:52.417Z,93957.59
2022-10-19T09:22:27.500Z,93957.78
2022-10-19T09:25:08.810Z,93956.97
2022-10-19T09:27:39.159Z,93957.06
2022-10-19T09:30:13.832Z,93950.03
2022-10-19T09:32:40.654Z,93958.75
2022-10-19T09:35:17.623Z,93955.19
2022-10-19T09:37:46.292Z,93955.28
2022-10-19T09:40:25.443Z,93955.88
2022-10-19T09:42:57.331Z,93955.53
2022-10-19T09:45:29.085Z,93959.34
2022-10-19T09:47:58.269Z,93958.31
2022-10-19T09:50:27.736Z,93960.88
2022-10-19T09:52:57.560Z,93958.75
2022-10-19T09:55:39.918Z,93955.16
2022-10-19T09:58:16.908Z,93957.34
2022-10-19T10:00:51.374Z,93951.41
2022-10-19T10:03:24.474Z,93949.16
2022-10-19T10:05:51.825Z,93945.72
2022-10-19T10:08:22.042Z,93943.28
2022-10-19T10:10:59.397Z,93942.13
2022-10-19T10:13:28.118Z,93942.50
2022-10-19T10:15:57.848Z,93942.91
2022-10-19T10:18:26.087Z,93941.06
2022-10-19T10:21:45.369Z,93926.63
2022-10-19T10:24:12.112Z,93926.38
2022-10-19T10:26:44.724Z,93925.94
2022-10-19T10:29:32.746Z,93919.47
2022-10-19T10:32:05.966Z,93910.66
2022-10-19T10:34:50.257Z,93907.75
2022-10-19T10:37:21.837Z,93914.00
2022-10-19T10:39:52.911Z,93896.41
2022-10-19T10:42:28.048Z,93889.72
2022-10-19T10:44:56.416Z,93889.97
2022-10-19T10:47:23.572Z,93884.56
2022-10-19T10:49:58.774Z,93882.63
2022-10-19T10:52:26.493Z,93873.69
2022-10-19T10:55:03.796Z,93877.13
2022-10-19T10:57:37.899Z,93870.25
2022-10-19T11:00:12.278Z,93862.94
2022-10-19T11:02:46.509Z,93863.53
2022-10-19T11:05:29.317Z,93864.91
2022-10-19T11:08:09.582Z,93861.06
2022-10-19T11:11:02.621Z,93856.53
2022-10-19T11:13:40.093Z,93859.25
2022-10-19T11:16:13.629Z,93859.44
2022-10-19T11:19:08.341Z,93859.09
2022-10-19T11:21:40.987Z,93850.50
2022-10-19T11:24:21.449Z,93845.94
2022-10-19T11:27:22.387Z,93833.22
2022-10-19T11:29:58.569Z,93836.28
2022-10-19T11:32:46.308Z,93831.66
2022-10-19T11:35:36.358Z,93835.94
2022-10-19T11:38:30.275Z,93829.44
2022-10-19T11:41:18.144Z,93823.75
2022-10-19T11:44:03.756Z,93822.31
2022-10-19T11:46:45.689Z,93820.72
2022-10-19T11:50:03.769Z,93804.16
2022-10-19T11:52:46.377Z,93807.38
2022-10-19T11:55:36.557Z,93806.50
2022-10-19T11:58:12.669Z,93800.25
2022-10-19T12:00:50.267Z,93789.38
2022-10-19T12:03:26.097Z,93789.38
2022-10-19T12:06:18.105Z,93784.09
2022-10-19T12:09:20.208Z,93783.00
2022-10-19T12:12:07.984Z,93784.69
2022-10-19T12:14:38.485Z,93789.03
2022-10-19T12:17:11.198Z,93784.19
2022-10-19T12:19:46.398Z,93786.34
2022-10-19T12:22:21.714Z,93786.03
2022-10-19T12:24:50.812Z,93787.28
2022-10-19T12:27:27.032Z,93785.31
2022-10-19T12:29:54.659Z,93780.97
2022-10-19T12:32:21.298Z,93784.69
2022-10-19T12:35:00.362Z,93784.78
2022-10-19T12:37:33.480Z,93783.78
2022-10-19T12:40:32.899Z,93780.06
2022-10-19T12:43:25.060Z,93778.75
2022-10-19T12:45:52.547Z,93779.25
2022-10-19T12:48:21.487Z,93781.28
2022-10-19T12:50:48.449Z,93778.97
2022-10-19T12:53:47.738Z,93776.94
2022-10-19T12:56:25.571Z,93770.63
2022-10-19T12:58:59.856Z,93772.50
2022-10-19T13:01:42.747Z,93772.75
2022-10-19T13:04:21.782Z,93776.69
2022-10-19T13:06:50.850Z,93777.84
2022-10-19T13:09:30.976Z,93774.91
2022-10-19T13:12:19.866Z,93774.09
2022-10-19T13:14:59.007Z,93773.81
2022-10-19T13:17:36.179Z,93777.72
2022-10-19T13:20:15.166Z,93773.16
2022-10-19T13:23:13.377Z,93774.25
2022-10-19T13:25:41.250Z,93764.97
2022-10-19T13:28:08.047Z,93761.84
2022-10-19T13:30:46.965Z,93757.25
2022-10-19T13:33:25.657Z,93755.75
2022-10-19T13:36:04.229Z,93760.06
2022-10-19T13:38:37.805Z,93766.16
2022-10-19T13:41:06.473Z,93758.00
2022-10-19T13:43:53.904Z,93755.09
2022-10-19T13:46:59.511Z,93751.38
2022-10-19T13:49:35.080Z,93748.19
2022-10-19T13:52:01.746Z,93746.09
2022-10-19T13:54:56.347Z,93751.97
2022-10-19T13:57:28.691Z,93745.50
2022-10-19T14:00:06.335Z,93745.75
2022-10-19T14:02:51.143Z,93746.81
2022-10-19T14:05:27.193Z,93737.59
2022-10-19T14:08:09.299Z,93729.97
2022-10-19T14:10:56.207Z,93733.47
2022-10-19T14:13:25.852Z,93732.16
2022-10-19T14:15:55.283Z,93728.13
2022-10-19T14:18:33.750Z,93726.81
2022-10-19T14:21:00.546Z,93733.50
2022-10-19T14:23:35.666Z,93733.25
2022-10-19T14:26:22.729Z,93743.81
2022-10-19T14:28:57.445Z,93742.47
2022-10-19T14:31:44.394Z,93745.81
2022-10-19T14:34:11.313Z,93745.00
2022-10-19T14:36:43.037Z,93744.50
2022-10-19T14:39:22.806Z,93749.69
2022-10-19T14:41:53.638Z,93746.41
2022-10-19T14:44:32.469Z,93745.31
2022-10-19T14:47:01.444Z,93745.44
2022-10-19T14:49:28.280Z,93753.00
2022-10-19T14:52:01.193Z,93757.00
2022-10-19T14:54:43.018Z,93761.34
2022-10-19T14:57:20.406Z,93760.72
2022-10-19T14:59:52.460Z,93764.06
2022-10-19T15:02:22.161Z,93764.66
2022-10-19T15:04:49.793Z,93770.75
2022-10-19T15:07:24.416Z,93773.84
2022-10-19T15:10:00.115Z,93777.69
2022-10-19T15:12:40.724Z,93779.91
2022-10-19T15:15:15.262Z,93783.53
2022-10-19T15:17:55.123Z,93785.72
2022-10-19T15:20:29.760Z,93788.91
2022-10-19T15:22:59.680Z,93793.13
2022-10-19T15:25:36.968Z,93797.72
2022-10-19T15:28:36.016Z,93793.31
2022-10-19T15:31:27.223Z,93797.13
2022-10-19T15:34:01.588Z,93804.09
2022-10-19T15:36:30.325Z,93799.28
2022-10-19T15:39:24.531Z,93803.63
2022-10-19T15:41:52.601Z,93807.41
2022-10-19T15:44:40.362Z,93813.16
2022-10-19T15:47:16.466Z,93818.75
2022-10-19T15:49:43.291Z,93816.28
2022-10-19T15:52:21.267Z,93818.25
2022-10-19T15:54:52.807Z,93820.97
2022-10-19T15:57:31.632Z,93822.53
2022-10-19T16:00:01.120Z,93824.09
2022-10-19T16:02:27.953Z,93833.25
2022-10-19T16:04:54.867Z,93835.81
2022-10-19T16:07:30.674Z,93836.78
2022-10-19T16:09:57.885Z,93842.88
2022-10-19T16:12:26.367Z,93849.84
2022-10-19T16:14:54.435Z,93841.09
2022-10-19T16:17:21.452Z,93843.28
2022-10-19T16:19:48.188Z,93849.63
2022-10-19T16:22:16.256Z,93851.19
2022-10-19T16:24:43.431Z,93852.53
2022-10-19T16:27:14.960Z,93858.34
2022-10-19T16:29:43.120Z,93860.16
2022-10-19T16:32:10.011Z,93863.47
2022-10-19T16:34:36.782Z,93866.78
2022-10-19T16:37:06.659Z,93874.28
2022-10-19T16:39:34.470Z,93877.59
2022-10-19T16:42:01.394Z,93882.38
2022-10-19T16:44:28.159Z,93885.50
2022-10-19T16:46:58.864Z,93895.88
2022-10-19T16:49:26.282Z,93888.66
2022-10-19T16:51:56.396Z,93885.81
2022-10-19T16:54:25.854Z,93898.69
2022-10-19T16:56:52.723Z,93905.84
2022-10-19T16:59:19.733Z,93908.81
2022-10-19T17:01:47.110Z,93913.72
2022-10-19T17:04:15.231Z,93916.06
2022-10-19T17:06:42.021Z,93924.63
2022-10-19T17:09:40.883Z,93913.22
2022-10-19T17:11:55.859Z,93923.16
2022-10-19T17:14:22.601Z,93918.50
2022-10-19T17:16:49.492Z,93924.03
2022-10-19T17:19:16.426Z,93925.81
2022-10-19T17:21:43.198Z,93914.06
2022-10-19T17:24:20.406Z,93922.47
2022-10-19T17:26:48.752Z,93918.59
2022-10-19T17:29:15.563Z,93923.00
2022-10-19T17:31:42.949Z,93915.75
2022-10-19T17:34:09.962Z,93920.75
2022-10-19T17:39:09.759Z,93917.72
2022-10-19T17:41:36.588Z,93920.06
2022-10-19T17:44:04.797Z,93914.44
2022-10-19T17:46:33.515Z,93924.16
2022-10-19T17:49:00.729Z,93918.72
2022-10-19T17:51:29.978Z,93924.44
2022-10-19T17:54:01.302Z,93921.22
2022-10-19T17:56:28.494Z,93924.97
2022-10-19T17:58:57.000Z,93922.56
2022-10-19T18:01:24.510Z,93924.16
2022-10-19T18:03:51.337Z,93924.72
2022-10-19T18:06:23.875Z,93921.50
2022-10-19T18:08:55.644Z,93908.28
2022-10-19T18:11:27.850Z,93916.69
2022-10-19T18:13:57.074Z,93919.91
2022-10-19T18:16:26.814Z,93914.47
2022-10-19T18:18:55.591Z,93916.56
2022-10-19T18:21:25.686Z,93907.81
2022-10-19T18:23:53.705Z,93907.00
2022-10-19T18:26:23.268Z,93918.00
2022-10-19T18:28:52.498Z,93913.97
2022-10-19T18:31:29.317Z,93920.91
2022-10-19T18:34:04.508Z,93921.00
2022-10-19T18:36:32.196Z,93922.47
2022-10-19T18:39:03.406Z,93921.44
2022-10-19T18:41:30.801Z,93922.25
2022-10-19T18:44:03.862Z,93924.41
2022-10-19T18:46:32.393Z,93928.66
2022-10-19T18:49:03.987Z,93925.09
2022-10-19T18:51:31.957Z,93932.88
2022-10-19T18:53:59.148Z,93930.81
2022-10-19T18:56:26.383Z,93935.19
2022-10-19T18:58:53.160Z,93930.19
2022-10-19T19:01:27.749Z,93943.13
2022-10-19T19:04:01.341Z,93948.84
2022-10-19T19:06:29.770Z,93949.59
2022-10-19T19:08:57.939Z,93949.81
2022-10-19T19:11:31.813Z,93948.63
2022-10-19T19:14:13.099Z,93954.63
2022-10-19T19:16:41.365Z,93958.91
2022-10-19T19:19:08.723Z,93966.13
2022-10-19T19:21:36.712Z,93957.72
2022-10-19T19:24:05.986Z,93962.91
2022-10-19T19:26:36.989Z,93972.53
2022-10-19T19:29:04.489Z,93968.16
2022-10-19T19:31:31.399Z,93971.44
2022-10-19T19:34:00.983Z,93957.69
2022-10-19T19:36:28.366Z,93969.38
2022-10-19T19:38:56.643Z,93977.56
2022-10-19T19:41:23.462Z,93977.41
2022-10-19T19:43:50.234Z,93983.03
2022-10-19T19:46:19.107Z,93983.19
2022-10-19T19:48:47.749Z,93986.00
2022-10-19T19:51:17.353Z,93981.03
2022-10-19T19:53:44.404Z,93986.25
2022-10-19T19:56:12.677Z,93992.41
2022-10-19T19:58:40.023Z,93999.16
2022-10-19T20:01:15.515Z,93992.22
2022-10-19T20:03:42.565Z,94001.31
2022-10-19T20:06:10.277Z,93996.81
2022-10-19T20:08:37.454Z,93991.66
2022-10-19T20:11:06.890Z,93992.47
2022-10-19T20:13:34.787Z,93996.38
2022-10-19T20:16:10.103Z,94008.47
2022-10-19T20:18:36.872Z,94018.19
2022-10-19T20:21:04.932Z,94015.78
2022-10-19T20:23:31.832Z,94012.50
2022-10-19T20:25:59.048Z,94003.75
2022-10-19T20:28:26.653Z,94019.91
2022-10-19T20:31:05.486Z,94018.94
2022-10-19T20:33:34.707Z,94020.88
2022-10-19T20:36:06.535Z,94015.69
2022-10-19T20:38:34.244Z,94020.31
2022-10-19T20:41:07.784Z,94024.97
2022-10-19T20:43:38.640Z,94020.63
2022-10-19T20:46:16.474Z,94021.38
2022-10-19T20:48:43.781Z,94025.25
2022-10-19T20:51:30.601Z,94028.13
2022-10-19T20:54:00.648Z,94024.22
2022-10-19T20:56:30.195Z,94021.00
2022-10-19T20:59:05.950Z,94024.53
2022-10-19T21:01:35.015Z,94018.84
2022-10-19T21:04:04.611Z,94022.72
2022-10-19T21:06:33.926Z,94025.75
2022-10-19T21:09:01.086Z,94024.97
2022-10-19T21:11:33.219Z,94025.75
2022-10-19T21:14:02.524Z,94028.00
2022-10-19T21:16:30.321Z,94026.41
2022-10-19T21:18:57.955Z,94035.66
2022-10-19T21:21:27.356Z,94037.88
2022-10-19T21:23:58.046Z,94037.88
2022-10-19T21:26:26.608Z,94040.47
2022-10-19T21:28:53.600Z,94035.00
2022-10-19T21:31:21.854Z,94040.19
2022-10-19T21:33:48.910Z,94045.72
2022-10-19T21:36:15.792Z,94037.94
2022-10-19T21:38:42.943Z,94041.69
2022-10-19T21:41:14.955Z,94043.94
2022-10-19T21:43:42.082Z,94038.28
2022-10-19T21:46:12.866Z,94044.44
2022-10-19T21:48:39.842Z,94047.38
2022-10-19T21:51:46.577Z,94044.78
2022-10-19T21:54:16.080Z,94044.31
2022-10-19T21:56:43.644Z,94047.06
2022-10-19T21:59:18.778Z,94044.31
2022-10-19T22:01:45.626Z,94048.84
2022-10-19T22:04:17.198Z,94045.75
2022-10-19T22:06:44.379Z,94060.97
2022-10-19T22:09:13.925Z,94040.47
2022-10-19T22:11:40.799Z,94055.34
2022-10-19T22:14:07.667Z,94056.50
2022-10-19T22:16:36.971Z,94054.38
2022-10-19T22:19:05.353Z,94053.91
2022-10-19T22:21:33.507Z,94056.03
2022-10-19T22:24:02.311Z,94058.00
2022-10-19T22:26:31.669Z,94058.81
2022-10-19T22:28:59.838Z,94055.34
2022-10-19T22:31:27.975Z,94044.03
2022-10-19T22:33:54.814Z,94065.69
2022-10-19T22:36:21.899Z,94055.22
2022-10-19T22:38:48.811Z,94067.81
2022-10-19T22:41:15.524Z,94069.88
2022-10-19T22:43:42.263Z,94066.50
2022-10-19T22:46:09.022Z,94066.78
2022-10-19T22:48:35.835Z,94059.47
2022-10-19T22:51:02.644Z,94064.03
2022-10-19T22:53:29.380Z,94070.00
2022-10-19T22:55:58.338Z,94070.19
2022-10-19T22:58:25.067Z,94078.75
2022-10-19T23:01:09.532Z,94077.41
2022-10-19T23:03:37.621Z,94073.16
2022-10-19T23:06:04.418Z,94074.03
2022-10-19T23:08:31.258Z,94067.59
2022-10-19T23:10:58.009Z,94069.38
2022-10-19T23:13:24.802Z,94070.50
2022-10-19T23:15:51.645Z,94081.66
2022-10-19T23:18:18.522Z,94064.72
2022-10-19T23:21:00.100Z,94071.50
2022-10-19T23:23:28.057Z,94068.41
2022-10-19T23:26:09.300Z,94077.75
2022-10-19T23:28:38.051Z,94081.94
2022-10-19T23:31:07.383Z,94084.06
2022-10-19T23:33:34.889Z,94076.59
2022-10-19T23:36:10.269Z,94076.75
2022-10-19T23:38:36.984Z,94080.06
2022-10-19T23:41:04.245Z,94082.00
2022-10-19T23:43:31.391Z,94086.50
2022-10-19T23:45:58.523Z,94094.41
2022-10-19T23:48:25.445Z,94086.59
2022-10-19T23:51:02.582Z,94088.66
2022-10-19T23:53:30.469Z,94084.81
2022-10-19T23:56:01.806Z,94095.66
2022-10-19T23:58:28.776Z,94090.66
